sensor_id;sensor_type;location;lat;lon;timestamp;pressure;altitude;pressure_sealevel;temperature;humidity
44103;BME280;29769;42.178;24.742;2022-07-21T00:01:20;99699.09;;;19.24;88.22
44103;BME280;29769;42.178;24.742;2022-07-21T00:04:05;99693.59;;;19.10;87.63
44103;BME280;29769;42.178;24.742;2022-07-21T00:06:50;99688.56;;;19.04;89.15
44103;BME280;29769;42.178;24.742;2022-07-21T00:09:35;99697.75;;;18.98;88.99
44103;BME280;29769;42.178;24.742;2022-07-21T00:12:19;99683.03;;;18.90;88.92
44103;BME280;29769;42.178;24.742;2022-07-21T00:15:04;99688.69;;;18.84;89.35
44103;BME280;29769;42.178;24.742;2022-07-21T00:17:49;99700.50;;;18.78;89.55
44103;BME280;29769;42.178;24.742;2022-07-21T00:20:34;99685.41;;;18.79;88.59
44103;BME280;29769;42.178;24.742;2022-07-21T00:23:19;99690.56;;;18.82;88.32
44103;BME280;29769;42.178;24.742;2022-07-21T00:26:04;99689.56;;;18.84;87.71
44103;BME280;29769;42.178;24.742;2022-07-21T00:28:49;99686.69;;;18.89;86.34
44103;BME280;29769;42.178;24.742;2022-07-21T00:31:34;99680.97;;;18.96;85.71
44103;BME280;29769;42.178;24.742;2022-07-21T00:34:18;99684.56;;;18.95;85.85
44103;BME280;29769;42.178;24.742;2022-07-21T00:37:03;99684.78;;;18.91;86.42
44103;BME280;29769;42.178;24.742;2022-07-21T00:39:48;99681.47;;;18.86;86.66
44103;BME280;29769;42.178;24.742;2022-07-21T00:42:32;99677.88;;;18.87;86.44
44103;BME280;29769;42.178;24.742;2022-07-21T00:45:17;99677.16;;;18.83;86.39
44103;BME280;29769;42.178;24.742;2022-07-21T00:48:01;99674.50;;;18.83;86.51
44103;BME280;29769;42.178;24.742;2022-07-21T00:50:46;99672.72;;;18.84;87.14
44103;BME280;29769;42.178;24.742;2022-07-21T00:53:31;99678.25;;;18.79;89.74
44103;BME280;29769;42.178;24.742;2022-07-21T00:56:16;99676.59;;;18.77;91.35
44103;BME280;29769;42.178;24.742;2022-07-21T00:59:01;99672.53;;;18.70;91.38
44103;BME280;29769;42.178;24.742;2022-07-21T01:01:46;99676.41;;;18.62;90.59
44103;BME280;29769;42.178;24.742;2022-07-21T01:04:31;99680.16;;;18.58;91.02
44103;BME280;29769;42.178;24.742;2022-07-21T01:07:15;99674.97;;;18.55;90.73
44103;BME280;29769;42.178;24.742;2022-07-21T01:10:00;99675.91;;;18.54;90.02
44103;BME280;29769;42.178;24.742;2022-07-21T01:12:45;99677.72;;;18.54;90.36
44103;BME280;29769;42.178;24.742;2022-07-21T01:15:30;99684.00;;;18.53;90.08
44103;BME280;29769;42.178;24.742;2022-07-21T01:18:15;99684.97;;;18.50;89.28
44103;BME280;29769;42.178;24.742;2022-07-21T01:21:01;99687.63;;;18.50;89.37
44103;BME280;29769;42.178;24.742;2022-07-21T01:23:46;99691.09;;;18.52;89.58
44103;BME280;29769;42.178;24.742;2022-07-21T01:26:39;99688.56;;;18.49;89.02
44103;BME280;29769;42.178;24.742;2022-07-21T01:29:25;99684.97;;;18.50;88.76
44103;BME280;29769;42.178;24.742;2022-07-21T01:32:10;99682.97;;;18.55;88.38
44103;BME280;29769;42.178;24.742;2022-07-21T01:34:54;99686.94;;;18.65;88.33
44103;BME280;29769;42.178;24.742;2022-07-21T01:37:42;99675.03;;;18.73;88.47
44103;BME280;29769;42.178;24.742;2022-07-21T01:40:27;99675.94;;;18.72;88.50
44103;BME280;29769;42.178;24.742;2022-07-21T01:43:30;99679.06;;;18.62;89.62
44103;BME280;29769;42.178;24.742;2022-07-21T01:46:14;99667.19;;;18.51;90.48
44103;BME280;29769;42.178;24.742;2022-07-21T01:48:59;99667.13;;;18.34;92.22
44103;BME280;29769;42.178;24.742;2022-07-21T01:51:44;99668.91;;;18.14;94.46
44103;BME280;29769;42.178;24.742;2022-07-21T01:54:29;99659.72;;;18.03;95.78
44103;BME280;29769;42.178;24.742;2022-07-21T01:57:13;99665.31;;;17.97;96.63
44103;BME280;29769;42.178;24.742;2022-07-21T01:59:58;99669.31;;;17.87;97.49
44103;BME280;29769;42.178;24.742;2022-07-21T02:02:43;99660.66;;;17.82;97.76
44103;BME280;29769;42.178;24.742;2022-07-21T02:05:27;99651.97;;;17.78;97.74
44103;BME280;29769;42.178;24.742;2022-07-21T02:08:12;99658.41;;;17.72;99.24
44103;BME280;29769;42.178;24.742;2022-07-21T02:10:57;99664.91;;;17.67;100.00
44103;BME280;29769;42.178;24.742;2022-07-21T02:13:42;99660.78;;;17.60;100.00
44103;BME280;29769;42.178;24.742;2022-07-21T02:16:26;99664.34;;;17.59;100.00
44103;BME280;29769;42.178;24.742;2022-07-21T02:19:11;99668.13;;;17.53;100.00
44103;BME280;29769;42.178;24.742;2022-07-21T02:21:56;99666.59;;;17.48;100.00
44103;BME280;29769;42.178;24.742;2022-07-21T02:24:41;99661.03;;;17.33;100.00
44103;BME280;29769;42.178;24.742;2022-07-21T02:27:26;99658.28;;;17.15;100.00
44103;BME280;29769;42.178;24.742;2022-07-21T02:30:11;99657.84;;;17.04;100.00
44103;BME280;29769;42.178;24.742;2022-07-21T02:32:56;99660.09;;;16.93;100.00
44103;BME280;29769;42.178;24.742;2022-07-21T02:35:41;99660.16;;;16.91;100.00
44103;BME280;29769;42.178;24.742;2022-07-21T02:38:26;99660.06;;;16.94;100.00
44103;BME280;29769;42.178;24.742;2022-07-21T02:41:10;99657.22;;;16.99;100.00
44103;BME280;29769;42.178;24.742;2022-07-21T02:43:55;99660.50;;;17.04;100.00
44103;BME280;29769;42.178;24.742;2022-07-21T02:46:40;99662.91;;;17.10;100.00
44103;BME280;29769;42.178;24.742;2022-07-21T02:49:24;99657.34;;;17.16;100.00
44103;BME280;29769;42.178;24.742;2022-07-21T02:52:09;99651.91;;;17.19;100.00
44103;BME280;29769;42.178;24.742;2022-07-21T02:54:53;99650.06;;;17.21;100.00
44103;BME280;29769;42.178;24.742;2022-07-21T02:57:38;99658.94;;;17.20;100.00
44103;BME280;29769;42.178;24.742;2022-07-21T03:00:23;99651.13;;;17.17;100.00
44103;BME280;29769;42.178;24.742;2022-07-21T03:03:08;99660.41;;;17.07;100.00
44103;BME280;29769;42.178;24.742;2022-07-21T03:05:53;99656.53;;;16.94;100.00
44103;BME280;29769;42.178;24.742;2022-07-21T03:08:37;99650.91;;;16.79;100.00
44103;BME280;29769;42.178;24.742;2022-07-21T03:11:23;99649.50;;;16.71;100.00
44103;BME280;29769;42.178;24.742;2022-07-21T03:14:07;99662.50;;;16.55;100.00
44103;BME280;29769;42.178;24.742;2022-07-21T03:16:52;99657.72;;;16.41;100.00
44103;BME280;29769;42.178;24.742;2022-07-21T03:19:37;99650.31;;;16.28;100.00
44103;BME280;29769;42.178;24.742;2022-07-21T03:22:21;99658.41;;;16.25;100.00
44103;BME280;29769;42.178;24.742;2022-07-21T03:25:06;99649.91;;;16.38;100.00
44103;BME280;29769;42.178;24.742;2022-07-21T03:27:51;99650.41;;;16.48;100.00
44103;BME280;29769;42.178;24.742;2022-07-21T03:30:36;99652.06;;;16.51;100.00
44103;BME280;29769;42.178;24.742;2022-07-21T03:33:20;99650.00;;;16.59;100.00
44103;BME280;29769;42.178;24.742;2022-07-21T03:36:05;99656.53;;;16.72;100.00
44103;BME280;29769;42.178;24.742;2022-07-21T03:38:51;99652.66;;;16.80;100.00
44103;BME280;29769;42.178;24.742;2022-07-21T03:41:36;99655.00;;;16.88;100.00
44103;BME280;29769;42.178;24.742;2022-07-21T03:44:21;99653.00;;;16.93;100.00
44103;BME280;29769;42.178;24.742;2022-07-21T03:47:06;99655.47;;;16.98;100.00
44103;BME280;29769;42.178;24.742;2022-07-21T03:49:50;99657.75;;;17.07;100.00
44103;BME280;29769;42.178;24.742;2022-07-21T03:52:35;99661.00;;;17.13;100.00
44103;BME280;29769;42.178;24.742;2022-07-21T03:55:20;99656.16;;;17.23;100.00
44103;BME280;29769;42.178;24.742;2022-07-21T03:58:05;99658.59;;;17.27;100.00
44103;BME280;29769;42.178;24.742;2022-07-21T04:00:50;99667.59;;;17.45;100.00
44103;BME280;29769;42.178;24.742;2022-07-21T04:03:34;99659.69;;;17.64;100.00
44103;BME280;29769;42.178;24.742;2022-07-21T04:06:19;99665.72;;;17.88;100.00
44103;BME280;29769;42.178;24.742;2022-07-21T04:09:04;99666.53;;;18.08;100.00
44103;BME280;29769;42.178;24.742;2022-07-21T04:11:49;99671.09;;;18.25;98.70
44103;BME280;29769;42.178;24.742;2022-07-21T04:14:34;99673.38;;;18.51;97.17
44103;BME280;29769;42.178;24.742;2022-07-21T04:17:18;99669.00;;;18.69;95.77
44103;BME280;29769;42.178;24.742;2022-07-21T04:20:03;99664.72;;;18.84;93.14
44103;BME280;29769;42.178;24.742;2022-07-21T04:22:48;99667.41;;;19.01;91.71
44103;BME280;29769;42.178;24.742;2022-07-21T04:25:33;99662.47;;;19.10;91.07
44103;BME280;29769;42.178;24.742;2022-07-21T04:28:18;99652.66;;;19.28;89.75
44103;BME280;29769;42.178;24.742;2022-07-21T04:31:03;99657.78;;;19.50;86.82
44103;BME280;29769;42.178;24.742;2022-07-21T04:33:47;99655.63;;;19.74;85.70
44103;BME280;29769;42.178;24.742;2022-07-21T04:36:32;99653.84;;;19.90;85.40
44103;BME280;29769;42.178;24.742;2022-07-21T04:39:16;99649.59;;;20.03;85.01
44103;BME280;29769;42.178;24.742;2022-07-21T04:42:01;99649.69;;;20.17;84.65
44103;BME280;29769;42.178;24.742;2022-07-21T04:44:46;99644.94;;;20.39;82.80
44103;BME280;29769;42.178;24.742;2022-07-21T04:47:30;99638.72;;;20.55;82.47
44103;BME280;29769;42.178;24.742;2022-07-21T04:50:16;99641.19;;;20.73;81.67
44103;BME280;29769;42.178;24.742;2022-07-21T04:53:01;99646.25;;;20.94;78.62
44103;BME280;29769;42.178;24.742;2022-07-21T04:55:46;99646.66;;;21.17;76.31
44103;BME280;29769;42.178;24.742;2022-07-21T04:58:31;99640.50;;;21.45;74.08
44103;BME280;29769;42.178;24.742;2022-07-21T05:01:15;99639.09;;;21.68;72.79
44103;BME280;29769;42.178;24.742;2022-07-21T05:04:02;99646.25;;;21.97;68.64
44103;BME280;29769;42.178;24.742;2022-07-21T05:06:47;99648.03;;;22.25;65.16
44103;BME280;29769;42.178;24.742;2022-07-21T05:09:32;99651.34;;;22.43;62.78
44103;BME280;29769;42.178;24.742;2022-07-21T05:12:17;99647.50;;;22.61;61.75
44103;BME280;29769;42.178;24.742;2022-07-21T05:15:03;99650.03;;;22.77;60.88
44103;BME280;29769;42.178;24.742;2022-07-21T05:17:48;99650.63;;;22.94;59.11
44103;BME280;29769;42.178;24.742;2022-07-21T05:20:32;99648.72;;;22.96;60.07
44103;BME280;29769;42.178;24.742;2022-07-21T05:23:17;99643.09;;;23.14;59.62
44103;BME280;29769;42.178;24.742;2022-07-21T05:26:02;99645.69;;;23.15;58.19
44103;BME280;29769;42.178;24.742;2022-07-21T05:28:46;99635.38;;;23.22;58.33
44103;BME280;29769;42.178;24.742;2022-07-21T05:31:31;99632.81;;;23.20;58.69
44103;BME280;29769;42.178;24.742;2022-07-21T05:34:16;99634.44;;;23.35;59.00
44103;BME280;29769;42.178;24.742;2022-07-21T05:37:00;99639.09;;;23.46;58.33
44103;BME280;29769;42.178;24.742;2022-07-21T05:39:45;99641.69;;;23.60;58.72
44103;BME280;29769;42.178;24.742;2022-07-21T05:42:30;99629.75;;;23.77;58.66
44103;BME280;29769;42.178;24.742;2022-07-21T05:45:15;99641.50;;;23.88;57.20
44103;BME280;29769;42.178;24.742;2022-07-21T05:47:59;99640.63;;;24.01;57.17
44103;BME280;29769;42.178;24.742;2022-07-21T05:50:44;99640.50;;;24.15;57.65
44103;BME280;29769;42.178;24.742;2022-07-21T05:53:29;99635.53;;;24.34;56.68
44103;BME280;29769;42.178;24.742;2022-07-21T05:56:13;99631.38;;;24.54;56.63
44103;BME280;29769;42.178;24.742;2022-07-21T05:58:58;99634.03;;;24.66;56.68
44103;BME280;29769;42.178;24.742;2022-07-21T06:01:42;99633.06;;;24.67;55.69
44103;BME280;29769;42.178;24.742;2022-07-21T06:04:27;99633.03;;;24.80;55.52
44103;BME280;29769;42.178;24.742;2022-07-21T06:07:12;99624.22;;;25.02;55.92
44103;BME280;29769;42.178;24.742;2022-07-21T06:09:56;99615.81;;;25.17;54.27
44103;BME280;29769;42.178;24.742;2022-07-21T06:12:42;99618.72;;;25.38;54.12
44103;BME280;29769;42.178;24.742;2022-07-21T06:15:26;99616.72;;;25.64;53.06
44103;BME280;29769;42.178;24.742;2022-07-21T06:18:11;99618.09;;;25.92;52.55
44103;BME280;29769;42.178;24.742;2022-07-21T06:20:55;99610.34;;;25.98;51.74
44103;BME280;29769;42.178;24.742;2022-07-21T06:23:40;99612.56;;;26.04;51.37
44103;BME280;29769;42.178;24.742;2022-07-21T06:26:25;99621.66;;;26.26;51.18
44103;BME280;29769;42.178;24.742;2022-07-21T06:29:10;99611.34;;;26.31;47.67
44103;BME280;29769;42.178;24.742;2022-07-21T06:31:56;99597.22;;;26.49;45.75
44103;BME280;29769;42.178;24.742;2022-07-21T06:34:41;99588.44;;;26.36;45.35
44103;BME280;29769;42.178;24.742;2022-07-21T06:37:26;99598.25;;;26.37;45.20
44103;BME280;29769;42.178;24.742;2022-07-21T06:40:11;99591.00;;;26.38;44.93
44103;BME280;29769;42.178;24.742;2022-07-21T06:42:55;99603.59;;;26.48;45.16
44103;BME280;29769;42.178;24.742;2022-07-21T06:45:40;99603.59;;;26.60;45.38
44103;BME280;29769;42.178;24.742;2022-07-21T06:48:25;99595.59;;;26.69;45.15
44103;BME280;29769;42.178;24.742;2022-07-21T06:51:09;99590.50;;;26.98;45.34
44103;BME280;29769;42.178;24.742;2022-07-21T06:53:54;99573.16;;;27.01;43.77
44103;BME280;29769;42.178;24.742;2022-07-21T06:56:39;99581.94;;;27.14;43.46
44103;BME280;29769;42.178;24.742;2022-07-21T06:59:23;99575.03;;;27.21;42.36
44103;BME280;29769;42.178;24.742;2022-07-21T07:02:08;99577.31;;;27.46;42.38
44103;BME280;29769;42.178;24.742;2022-07-21T07:04:52;99570.41;;;27.53;41.08
44103;BME280;29769;42.178;24.742;2022-07-21T07:07:37;99573.19;;;27.63;41.05
44103;BME280;29769;42.178;24.742;2022-07-21T07:10:22;99563.78;;;27.88;41.11
44103;BME280;29769;42.178;24.742;2022-07-21T07:13:07;99556.78;;;27.85;39.35
44103;BME280;29769;42.178;24.742;2022-07-21T07:15:52;99567.97;;;28.01;39.47
44103;BME280;29769;42.178;24.742;2022-07-21T07:18:37;99556.09;;;28.23;39.50
44103;BME280;29769;42.178;24.742;2022-07-21T07:21:22;99548.13;;;28.31;38.25
44103;BME280;29769;42.178;24.742;2022-07-21T07:24:07;99542.44;;;28.24;37.67
44103;BME280;29769;42.178;24.742;2022-07-21T07:26:52;99546.88;;;28.25;38.21
44103;BME280;29769;42.178;24.742;2022-07-21T07:29:36;99551.88;;;28.49;37.60
44103;BME280;29769;42.178;24.742;2022-07-21T07:32:21;99532.22;;;28.47;37.00
44103;BME280;29769;42.178;24.742;2022-07-21T07:35:07;99550.47;;;28.64;37.54
44103;BME280;29769;42.178;24.742;2022-07-21T07:37:51;99551.09;;;28.78;36.96
44103;BME280;29769;42.178;24.742;2022-07-21T07:40:36;99543.22;;;28.94;36.76
44103;BME280;29769;42.178;24.742;2022-07-21T07:43:20;99539.66;;;29.03;36.37
44103;BME280;29769;42.178;24.742;2022-07-21T07:46:05;99550.06;;;29.07;36.75
44103;BME280;29769;42.178;24.742;2022-07-21T07:48:51;99534.50;;;29.29;37.43
44103;BME280;29769;42.178;24.742;2022-07-21T07:51:36;99547.19;;;29.28;37.01
44103;BME280;29769;42.178;24.742;2022-07-21T07:54:21;99544.84;;;29.62;36.32
44103;BME280;29769;42.178;24.742;2022-07-21T07:57:06;99520.09;;;29.84;35.91
44103;BME280;29769;42.178;24.742;2022-07-21T07:59:51;99535.78;;;30.18;35.88
44103;BME280;29769;42.178;24.742;2022-07-21T08:02:35;99531.41;;;30.34;34.31
44103;BME280;29769;42.178;24.742;2022-07-21T08:05:20;99528.91;;;30.68;33.92
44103;BME280;29769;42.178;24.742;2022-07-21T08:08:04;99517.81;;;30.79;33.80
44103;BME280;29769;42.178;24.742;2022-07-21T08:10:49;99523.47;;;31.04;34.11
44103;BME280;29769;42.178;24.742;2022-07-21T08:13:34;99523.81;;;31.70;33.82
44103;BME280;29769;42.178;24.742;2022-07-21T08:16:19;99515.25;;;31.99;32.53
44103;BME280;29769;42.178;24.742;2022-07-21T08:19:03;99524.72;;;31.87;32.80
44103;BME280;29769;42.178;24.742;2022-07-21T08:21:48;99513.69;;;31.88;32.47
44103;BME280;29769;42.178;24.742;2022-07-21T08:24:32;99513.72;;;31.62;33.04
44103;BME280;29769;42.178;24.742;2022-07-21T08:27:17;99511.41;;;31.50;32.98
44103;BME280;29769;42.178;24.742;2022-07-21T08:30:02;99503.53;;;31.39;32.85
44103;BME280;29769;42.178;24.742;2022-07-21T08:32:47;99512.03;;;31.44;33.33
44103;BME280;29769;42.178;24.742;2022-07-21T08:35:31;99508.09;;;31.56;33.25
44103;BME280;29769;42.178;24.742;2022-07-21T08:38:17;99510.47;;;31.33;33.09
44103;BME280;29769;42.178;24.742;2022-07-21T08:41:04;99513.22;;;31.41;33.38
44103;BME280;29769;42.178;24.742;2022-07-21T08:43:49;99500.47;;;31.42;33.05
44103;BME280;29769;42.178;24.742;2022-07-21T08:46:34;99507.06;;;31.39;33.31
44103;BME280;29769;42.178;24.742;2022-07-21T08:49:22;99510.84;;;31.64;33.50
44103;BME280;29769;42.178;24.742;2022-07-21T08:52:06;99494.16;;;31.93;31.94
44103;BME280;29769;42.178;24.742;2022-07-21T08:54:51;99494.31;;;32.25;31.39
44103;BME280;29769;42.178;24.742;2022-07-21T08:57:39;99491.22;;;32.20;30.87
44103;BME280;29769;42.178;24.742;2022-07-21T09:00:25;99489.00;;;32.24;30.66
44103;BME280;29769;42.178;24.742;2022-07-21T09:03:17;99481.22;;;32.53;30.07
44103;BME280;29769;42.178;24.742;2022-07-21T09:06:08;99485.00;;;32.60;29.26
44103;BME280;29769;42.178;24.742;2022-07-21T09:08:55;99480.59;;;32.91;29.05
44103;BME280;29769;42.178;24.742;2022-07-21T09:11:43;99477.38;;;33.20;29.12
44103;BME280;29769;42.178;24.742;2022-07-21T09:14:29;99478.38;;;33.35;28.85
44103;BME280;29769;42.178;24.742;2022-07-21T09:17:15;99478.91;;;33.23;28.21
44103;BME280;29769;42.178;24.742;2022-07-21T09:20:00;99475.13;;;33.48;28.55
44103;BME280;29769;42.178;24.742;2022-07-21T09:23:00;99469.38;;;33.82;27.66
44103;BME280;29769;42.178;24.742;2022-07-21T09:25:46;99470.16;;;34.37;27.75
44103;BME280;29769;42.178;24.742;2022-07-21T09:28:31;99457.72;;;34.80;25.77
44103;BME280;29769;42.178;24.742;2022-07-21T09:31:16;99459.75;;;35.53;25.52
44103;BME280;29769;42.178;24.742;2022-07-21T09:34:02;99466.56;;;36.59;24.51
44103;BME280;29769;42.178;24.742;2022-07-21T09:36:58;99448.63;;;37.20;23.15
44103;BME280;29769;42.178;24.742;2022-07-21T09:39:48;99462.44;;;37.61;22.92
44103;BME280;29769;42.178;24.742;2022-07-21T09:42:34;99442.28;;;37.47;22.66
44103;BME280;29769;42.178;24.742;2022-07-21T09:45:20;99454.72;;;37.15;23.04
44103;BME280;29769;42.178;24.742;2022-07-21T09:48:05;99458.94;;;37.80;22.62
44103;BME280;29769;42.178;24.742;2022-07-21T09:50:49;99451.44;;;38.62;21.56
44103;BME280;29769;42.178;24.742;2022-07-21T09:56:38;99455.84;;;38.44;21.92
44103;BME280;29769;42.178;24.742;2022-07-21T09:59:23;99459.50;;;39.49;19.99
44103;BME280;29769;42.178;24.742;2022-07-21T10:02:09;99455.78;;;40.02;19.74
44103;BME280;29769;42.178;24.742;2022-07-21T10:05:18;99442.06;;;40.96;19.34
44103;BME280;29769;42.178;24.742;2022-07-21T10:08:02;99441.31;;;41.75;19.02
44103;BME280;29769;42.178;24.742;2022-07-21T10:10:48;99445.81;;;42.24;17.98
44103;BME280;29769;42.178;24.742;2022-07-21T10:13:33;99430.66;;;42.74;17.74
44103;BME280;29769;42.178;24.742;2022-07-21T10:16:17;99431.78;;;43.08;17.38
44103;BME280;29769;42.178;24.742;2022-07-21T10:24:37;99422.13;;;41.80;18.83
44103;BME280;29769;42.178;24.742;2022-07-21T10:27:23;99413.81;;;39.42;19.98
44103;BME280;29769;42.178;24.742;2022-07-21T10:30:08;99417.75;;;40.17;19.71
44103;BME280;29769;42.178;24.742;2022-07-21T10:32:53;99401.09;;;40.74;18.91
44103;BME280;29769;42.178;24.742;2022-07-21T10:35:41;99407.28;;;41.19;18.48
44103;BME280;29769;42.178;24.742;2022-07-21T10:38:30;99398.34;;;39.98;19.30
44103;BME280;29769;42.178;24.742;2022-07-21T10:41:15;99393.34;;;40.27;19.00
44103;BME280;29769;42.178;24.742;2022-07-21T10:47:17;99398.25;;;43.91;16.08
44103;BME280;29769;42.178;24.742;2022-07-21T10:50:04;99393.25;;;43.65;15.93
44103;BME280;29769;42.178;24.742;2022-07-21T10:52:56;99400.56;;;43.82;16.06
44103;BME280;29769;42.178;24.742;2022-07-21T10:55:47;99386.66;;;45.34;14.72
44103;BME280;29769;42.178;24.742;2022-07-21T10:58:33;99387.03;;;46.03;14.59
44103;BME280;29769;42.178;24.742;2022-07-21T11:01:19;99386.25;;;47.25;13.96
44103;BME280;29769;42.178;24.742;2022-07-21T11:04:12;99399.97;;;47.84;13.65
44103;BME280;29769;42.178;24.742;2022-07-21T11:06:56;99387.34;;;49.19;12.70
44103;BME280;29769;42.178;24.742;2022-07-21T11:10:05;99398.28;;;49.95;11.84
44103;BME280;29769;42.178;24.742;2022-07-21T11:12:55;99386.13;;;48.09;12.98
44103;BME280;29769;42.178;24.742;2022-07-21T11:15:48;99382.25;;;49.36;12.01
44103;BME280;29769;42.178;24.742;2022-07-21T11:18:37;99373.31;;;49.50;11.73
44103;BME280;29769;42.178;24.742;2022-07-21T11:21:26;99375.25;;;47.50;13.15
44103;BME280;29769;42.178;24.742;2022-07-21T11:24:17;99381.19;;;48.67;12.10
44103;BME280;29769;42.178;24.742;2022-07-21T11:27:09;99375.28;;;49.44;11.70
44103;BME280;29769;42.178;24.742;2022-07-21T11:29:56;99372.88;;;50.36;11.31
44103;BME280;29769;42.178;24.742;2022-07-21T11:32:45;99367.47;;;50.05;11.35
44103;BME280;29769;42.178;24.742;2022-07-21T11:35:30;99363.31;;;47.60;12.77
44103;BME280;29769;42.178;24.742;2022-07-21T11:38:21;99365.00;;;45.14;14.35
44103;BME280;29769;42.178;24.742;2022-07-21T11:41:13;99358.16;;;45.22;14.58
44103;BME280;29769;42.178;24.742;2022-07-21T11:43:58;99364.66;;;45.71;14.08
44103;BME280;29769;42.178;24.742;2022-07-21T11:46:52;99353.34;;;46.85;13.15
44103;BME280;29769;42.178;24.742;2022-07-21T11:49:37;99345.69;;;48.27;12.05
44103;BME280;29769;42.178;24.742;2022-07-21T11:52:29;99354.53;;;49.60;11.52
44103;BME280;29769;42.178;24.742;2022-07-21T11:55:14;99357.63;;;50.18;11.20
44103;BME280;29769;42.178;24.742;2022-07-21T11:57:58;99350.06;;;50.91;10.90
44103;BME280;29769;42.178;24.742;2022-07-21T12:00:43;99353.69;;;51.21;10.75
44103;BME280;29769;42.178;24.742;2022-07-21T12:03:27;99353.53;;;51.83;10.51
44103;BME280;29769;42.178;24.742;2022-07-21T12:06:12;99354.53;;;51.92;10.38
44103;BME280;29769;42.178;24.742;2022-07-21T12:08:57;99355.19;;;51.08;10.34
44103;BME280;29769;42.178;24.742;2022-07-21T12:11:42;99343.44;;;51.35;10.00
44103;BME280;29769;42.178;24.742;2022-07-21T12:14:43;99343.81;;;51.76;10.31
44103;BME280;29769;42.178;24.742;2022-07-21T12:17:36;99346.94;;;51.50;10.21
44103;BME280;29769;42.178;24.742;2022-07-21T12:20:26;99332.78;;;51.08;10.10
44103;BME280;29769;42.178;24.742;2022-07-21T12:23:17;99339.88;;;51.53;9.80
44103;BME280;29769;42.178;24.742;2022-07-21T12:26:03;99336.09;;;52.05;9.33
44103;BME280;29769;42.178;24.742;2022-07-21T12:28:49;99336.50;;;51.75;9.83
44103;BME280;29769;42.178;24.742;2022-07-21T12:31:36;99324.56;;;50.59;10.64
44103;BME280;29769;42.178;24.742;2022-07-21T12:34:21;99327.56;;;51.01;10.30
44103;BME280;29769;42.178;24.742;2022-07-21T12:37:08;99323.34;;;51.28;9.99
44103;BME280;29769;42.178;24.742;2022-07-21T12:40:00;99322.28;;;48.28;11.81
44103;BME280;29769;42.178;24.742;2022-07-21T12:42:45;99308.34;;;45.54;13.42
44103;BME280;29769;42.178;24.742;2022-07-21T12:45:29;99308.72;;;44.52;13.89
44103;BME280;29769;42.178;24.742;2022-07-21T12:48:15;99296.91;;;46.26;13.37
44103;BME280;29769;42.178;24.742;2022-07-21T12:51:07;99300.47;;;46.85;12.34
44103;BME280;29769;42.178;24.742;2022-07-21T12:53:56;99295.03;;;47.00;12.54
44103;BME280;29769;42.178;24.742;2022-07-21T12:56:40;99291.88;;;47.39;12.03
44103;BME280;29769;42.178;24.742;2022-07-21T12:59:25;99297.06;;;47.15;12.30
44103;BME280;29769;42.178;24.742;2022-07-21T13:02:10;99288.38;;;47.11;12.14
44103;BME280;29769;42.178;24.742;2022-07-21T13:04:54;99289.16;;;46.97;12.66
44103;BME280;29769;42.178;24.742;2022-07-21T13:07:39;99283.66;;;47.12;12.77
44103;BME280;29769;42.178;24.742;2022-07-21T13:10:24;99278.34;;;46.31;13.16
44103;BME280;29769;42.178;24.742;2022-07-21T13:13:09;99276.94;;;46.02;12.96
44103;BME280;29769;42.178;24.742;2022-07-21T13:15:54;99260.50;;;43.75;15.13
44103;BME280;29769;42.178;24.742;2022-07-21T13:18:39;99269.47;;;42.67;16.18
44103;BME280;29769;42.178;24.742;2022-07-21T13:21:24;99262.47;;;41.88;16.30
44103;BME280;29769;42.178;24.742;2022-07-21T13:24:08;99263.28;;;41.89;16.76
44103;BME280;29769;42.178;24.742;2022-07-21T13:26:53;99266.69;;;42.02;16.37
44103;BME280;29769;42.178;24.742;2022-07-21T13:29:37;99275.63;;;43.44;15.62
44103;BME280;29769;42.178;24.742;2022-07-21T13:32:22;99276.66;;;44.56;14.82
44103;BME280;29769;42.178;24.742;2022-07-21T13:35:06;99275.13;;;45.64;14.17
44103;BME280;29769;42.178;24.742;2022-07-21T13:37:52;99269.53;;;46.44;13.60
44103;BME280;29769;42.178;24.742;2022-07-21T13:40:36;99264.44;;;46.31;13.57
44103;BME280;29769;42.178;24.742;2022-07-21T13:43:21;99267.47;;;45.76;14.33
44103;BME280;29769;42.178;24.742;2022-07-21T13:46:06;99268.38;;;45.16;14.75
44103;BME280;29769;42.178;24.742;2022-07-21T13:48:51;99265.09;;;44.81;14.90
44103;BME280;29769;42.178;24.742;2022-07-21T13:51:35;99268.53;;;44.05;15.40
44103;BME280;29769;42.178;24.742;2022-07-21T13:54:20;99267.31;;;43.56;15.56
44103;BME280;29769;42.178;24.742;2022-07-21T13:57:05;99270.19;;;43.61;15.76
44103;BME280;29769;42.178;24.742;2022-07-21T13:59:49;99265.75;;;43.76;15.23
44103;BME280;29769;42.178;24.742;2022-07-21T14:02:36;99262.28;;;44.26;14.99
44103;BME280;29769;42.178;24.742;2022-07-21T14:05:21;99277.81;;;44.60;14.87
44103;BME280;29769;42.178;24.742;2022-07-21T14:08:05;99261.97;;;44.94;14.58
44103;BME280;29769;42.178;24.742;2022-07-21T14:10:50;99269.94;;;44.69;14.71
44103;BME280;29769;42.178;24.742;2022-07-21T14:13:35;99264.16;;;44.09;14.87
44103;BME280;29769;42.178;24.742;2022-07-21T14:16:19;99265.31;;;43.28;15.45
44103;BME280;29769;42.178;24.742;2022-07-21T14:19:04;99262.84;;;42.33;16.29
44103;BME280;29769;42.178;24.742;2022-07-21T14:21:48;99260.47;;;41.77;16.71
44103;BME280;29769;42.178;24.742;2022-07-21T14:24:33;99264.38;;;41.21;17.31
44103;BME280;29769;42.178;24.742;2022-07-21T14:27:36;99266.34;;;40.96;17.92
44103;BME280;29769;42.178;24.742;2022-07-21T14:30:22;99262.19;;;40.69;18.35
44103;BME280;29769;42.178;24.742;2022-07-21T14:33:07;99252.97;;;41.18;17.24
44103;BME280;29769;42.178;24.742;2022-07-21T14:35:52;99256.56;;;41.66;17.38